Time;durP1;ratioP1;P1;durP2;ratioP2;P2;SDS_P1;SDS_P2;PMS_P1;PMS_P2;Temp;Humidity;BMP_temperature;BMP_pressure;BME280_temperature;BME280_humidity;BME280_pressure;Samples;Min_cycle;Max_cycle;Signal;HPM_P1;HPM_P2
2021/06/09 00:00:59;;;;;;;2.60;1.80;;;19.20;94.20;;;;;;4990071;28;20035;-70
2021/06/09 00:03:24;;;;;;;3.78;1.90;;;19.30;94.20;;;;;;4989727;28;20065;-70
2021/06/09 00:05:51;;;;;;;2.10;1.55;;;19.30;94.10;;;;;;4991390;28;20034;-70
2021/06/09 00:08:17;;;;;;;5.93;2.10;;;19.30;93.90;;;;;;4989693;28;20038;-70
2021/06/09 00:10:43;;;;;;;1.75;1.58;;;19.30;93.90;;;;;;4989731;28;20050;-69
2021/06/09 00:13:09;;;;;;;3.92;1.50;;;19.30;93.50;;;;;;4983449;28;20081;-70
2021/06/09 00:15:35;;;;;;;1.95;1.52;;;19.30;93.40;;;;;;4971401;28;20042;-69
2021/06/09 00:18:02;;;;;;;2.97;1.67;;;19.30;93.30;;;;;;4991384;28;20034;-69
2021/06/09 00:20:28;;;;;;;2.53;1.55;;;19.30;93.20;;;;;;4990067;28;20058;-69
2021/06/09 00:22:55;;;;;;;2.55;1.52;;;19.30;93.40;;;;;;4989709;28;20045;-70
2021/06/09 00:25:21;;;;;;;3.80;1.42;;;19.30;92.90;;;;;;4989532;28;20172;-70
2021/06/09 00:27:51;;;;;;;1.75;1.48;;;19.30;92.90;;;;;;4989727;28;20045;-70
2021/06/09 00:30:21;;;;;;;1.73;1.30;;;19.30;92.80;;;;;;4990763;28;20034;-68
2021/06/09 00:32:46;;;;;;;1.75;1.27;;;19.30;92.60;;;;;;4989989;28;20058;-69
2021/06/09 00:35:13;;;;;;;2.10;1.40;;;19.30;92.70;;;;;;4989663;28;20069;-69
2021/06/09 00:37:39;;;;;;;4.18;1.40;;;19.30;92.70;;;;;;4989391;28;20411;-69
2021/06/09 00:40:09;;;;;;;1.92;1.65;;;19.30;92.60;;;;;;4989479;28;20031;-70
2021/06/09 00:42:35;;;;;;;1.65;1.45;;;19.30;92.70;;;;;;4990061;28;20023;-69
2021/06/09 00:45:02;;;;;;;2.08;1.42;;;19.30;92.50;;;;;;4990660;28;20137;-69
2021/06/09 00:47:28;;;;;;;3.95;1.20;;;19.30;92.80;;;;;;4988486;28;20035;-70
2021/06/09 00:49:53;;;;;;;2.17;1.33;;;19.30;92.40;;;;;;4979015;28;20046;-70
2021/06/09 00:52:27;;;;;;;1.85;1.30;;;19.30;92.50;;;;;;4981700;28;20081;-70
2021/06/09 00:54:54;;;;;;;2.13;1.50;;;19.20;92.40;;;;;;4993061;28;20113;-70
2021/06/09 00:57:22;;;;;;;6.15;1.50;;;19.20;92.60;;;;;;4994804;28;20326;-69
2021/06/09 00:59:48;;;;;;;;;;;19.20;92.70;;;;;;4992987;28;20033;-69
2021/06/09 01:02:13;;;;;;;1.83;1.70;;;19.20;92.50;;;;;;4992926;28;19910;-70
2021/06/09 01:04:39;;;;;;;3.72;1.63;;;19.10;92.60;;;;;;4992942;28;20129;-70
2021/06/09 01:07:05;;;;;;;2.67;1.60;;;19.20;93.10;;;;;;4992955;28;20049;-69
2021/06/09 01:09:31;;;;;;;5.25;1.63;;;19.10;92.90;;;;;;4992848;28;20341;-69
2021/06/09 01:11:58;;;;;;;2.78;1.90;;;19.10;92.60;;;;;;4994123;28;20015;-69
2021/06/09 01:14:24;;;;;;;1.67;1.30;;;19.10;92.70;;;;;;4992608;28;20090;-70
2021/06/09 01:16:51;;;;;;;3.80;1.45;;;19.10;92.60;;;;;;4980385;28;20047;-69
2021/06/09 01:19:21;;;;;;;1.60;1.50;;;19.10;92.60;;;;;;4979561;28;20073;-69
2021/06/09 01:21:48;;;;;;;4.05;1.38;;;19.10;92.50;;;;;;4992600;28;20130;-69
2021/06/09 01:24:15;;;;;;;4.87;1.50;;;19.10;92.50;;;;;;4994313;28;20030;-69
2021/06/09 01:26:41;;;;;;;1.58;1.38;;;19.10;93.20;;;;;;4992850;28;20474;-70
2021/06/09 01:29:07;;;;;;;2.65;1.45;;;19.00;93.90;;;;;;4992393;28;20081;-69
2021/06/09 01:31:33;;;;;;;2.28;1.80;;;19.00;93.80;;;;;;4992349;28;20066;-69
2021/06/09 01:34:04;;;;;;;1.40;1.30;;;19.00;94.00;;;;;;4992412;28;20069;-68
2021/06/09 01:36:37;;;;;;;1.83;1.60;;;19.00;93.50;;;;;;5006057;28;20026;-69
2021/06/09 01:39:14;;;;;;;4.18;2.00;;;19.00;93.20;;;;;;5013209;28;20036;-68
2021/06/09 01:41:44;;;;;;;1.52;1.10;;;19.00;93.40;;;;;;5011706;28;20077;-69
2021/06/09 01:44:11;;;;;;;9.70;1.70;;;18.90;94.00;;;;;;5011394;28;20117;-69
2021/06/09 01:46:36;;;;;;;2.80;1.42;;;18.90;94.00;;;;;;5011244;28;20574;-71
2021/06/09 01:49:06;;;;;;;2.10;1.63;;;18.80;94.20;;;;;;5011304;28;20034;-68
2021/06/09 01:51:31;;;;;;;2.22;1.70;;;18.70;94.20;;;;;;5010673;28;20026;-68
2021/06/09 01:53:57;;;;;;;3.20;1.60;;;18.70;94.30;;;;;;5011741;28;20041;-69
2021/06/09 01:56:23;;;;;;;3.92;1.65;;;18.60;94.60;;;;;;5011457;28;20133;-70
2021/06/09 01:58:49;;;;;;;3.33;1.63;;;18.60;94.50;;;;;;5011416;28;20148;-69
2021/06/09 02:01:16;;;;;;;2.97;1.42;;;18.60;94.60;;;;;;5010958;28;20467;-70
2021/06/09 02:03:42;;;;;;;2.67;1.50;;;18.60;94.50;;;;;;5011467;28;20042;-69
2021/06/09 02:06:08;;;;;;;4.88;2.35;;;18.60;94.40;;;;;;5013087;28;20083;-69
2021/06/09 02:08:34;;;;;;;4.32;1.20;;;18.50;94.10;;;;;;5011268;28;20460;-72
2021/06/09 02:11:00;;;;;;;2.88;1.33;;;18.60;94.30;;;;;;5011289;28;20041;-68
2021/06/09 02:13:26;;;;;;;5.72;1.70;;;18.50;94.60;;;;;;5010706;28;20081;-68
2021/06/09 02:15:54;;;;;;;4.03;1.55;;;18.50;94.90;;;;;;5011017;28;20065;-69
2021/06/09 02:18:26;;;;;;;2.65;1.50;;;18.50;94.40;;;;;;5012611;28;20466;-69
2021/06/09 02:20:56;;;;;;;11.25;1.73;;;18.60;93.90;;;;;;5011408;28;20180;-69
2021/06/09 02:23:24;;;;;;;3.38;1.42;;;18.60;94.70;;;;;;5011153;28;20104;-71
2021/06/09 02:25:56;;;;;;;5.93;1.60;;;18.60;94.50;;;;;;5010856;28;20060;-70
2021/06/09 02:28:27;;;;;;;4.43;1.65;;;18.60;94.50;;;;;;5011183;28;20048;-69
2021/06/09 02:30:52;;;;;;;4.30;1.50;;;18.70;94.50;;;;;;5010870;28;20056;-69
2021/06/09 02:33:20;;;;;;;3.47;1.52;;;18.60;94.70;;;;;;5012491;28;20632;-69
2021/06/09 02:35:46;;;;;;;4.28;1.70;;;18.60;94.90;;;;;;5011170;28;20041;-70
2021/06/09 02:38:14;;;;;;;4.82;1.48;;;18.50;95.30;;;;;;5010757;28;20038;-70
2021/06/09 02:40:47;;;;;;;1.52;1.42;;;18.40;95.40;;;;;;5010612;28;20109;-69
2021/06/09 02:43:15;;;;;;;4.70;1.65;;;18.50;95.40;;;;;;5010394;28;20037;-69
2021/06/09 02:45:43;;;;;;;2.00;1.63;;;18.40;95.30;;;;;;5010557;28;20033;-68
2021/06/09 02:48:10;;;;;;;;;;;18.50;95.20;;;;;;5012552;28;20029;-68
2021/06/09 02:50:37;;;;;;;4.15;2.03;;;18.50;95.30;;;;;;5010482;28;20258;-70
2021/06/09 02:53:22;;;;;;;6.60;1.83;;;18.50;94.90;;;;;;5010289;28;20338;-69
2021/06/09 02:56:10;;;;;;;4.10;1.75;;;18.50;95.10;;;;;;5010576;28;20046;-69
2021/06/09 02:59:02;;;;;;;3.05;1.52;;;18.50;95.50;;;;;;5009774;28;20387;-69
2021/06/09 03:01:37;;;;;;;2.45;1.60;;;18.40;96.00;;;;;;5010174;28;20393;-69
2021/06/09 03:04:26;;;;;;;2.88;1.80;;;18.30;96.10;;;;;;5010107;28;20042;-69
2021/06/09 03:07:06;;;;;;;4.40;1.85;;;18.30;96.00;;;;;;5010341;28;20069;-69
2021/06/09 03:09:49;;;;;;;2.75;1.48;;;18.20;95.90;;;;;;5009961;28;20100;-68
2021/06/09 03:12:25;;;;;;;1.92;1.70;;;18.20;95.90;;;;;;5010790;28;20014;-70
2021/06/09 03:15:10;;;;;;;2.35;1.58;;;18.10;95.70;;;;;;5009316;28;20049;-70
2021/06/09 03:17:46;;;;;;;5.90;1.50;;;18.00;95.90;;;;;;5009984;28;20521;-69
2021/06/09 03:20:52;;;;;;;3.47;1.77;;;18.00;95.90;;;;;;5025314;28;20049;-69
2021/06/09 03:23:55;;;;;;;3.70;1.80;;;18.00;95.80;;;;;;5008235;28;20042;-68
2021/06/09 03:26:32;;;;;;;3.03;2.03;;;18.10;95.80;;;;;;5009984;28;20038;-69
2021/06/09 03:29:08;;;;;;;4.63;2.00;;;18.10;95.90;;;;;;5010057;28;20041;-69
2021/06/09 03:31:39;;;;;;;2.60;1.95;;;18.00;95.90;;;;;;5009553;28;20042;-69
2021/06/09 03:34:12;;;;;;;5.30;2.00;;;18.00;96.00;;;;;;5009688;28;20045;-67
2021/06/09 03:36:40;;;;;;;3.78;1.85;;;17.90;96.00;;;;;;5009758;28;20447;-68
2021/06/09 03:39:08;;;;;;;4.93;1.80;;;17.80;96.00;;;;;;5010943;28;20033;-69
2021/06/09 03:41:48;;;;;;;7.18;1.95;;;17.80;96.10;;;;;;5008653;28;20412;-69
2021/06/09 03:44:17;;;;;;;2.97;1.80;;;17.80;96.10;;;;;;5009411;28;20106;-69
2021/06/09 03:46:43;;;;;;;4.68;2.00;;;17.70;96.10;;;;;;5009840;28;20034;-69
2021/06/09 03:49:11;;;;;;;3.42;1.80;;;17.70;96.30;;;;;;5009965;28;20038;-69
2021/06/09 03:51:41;;;;;;;4.65;2.15;;;17.80;96.20;;;;;;5009643;28;20089;-69
2021/06/09 03:54:08;;;;;;;3.20;1.88;;;17.70;96.30;;;;;;5010009;28;20022;-68
2021/06/09 03:56:36;;;;;;;8.38;1.98;;;17.70;96.40;;;;;;5009557;28;20479;-68
2021/06/09 03:59:03;;;;;;;3.30;2.10;;;17.80;96.50;;;;;;5010135;28;20037;-68
2021/06/09 04:01:35;;;;;;;9.90;2.25;;;17.90;96.50;;;;;;5009648;28;20037;-68
2021/06/09 04:04:03;;;;;;;7.32;2.33;;;17.90;96.60;;;;;;5009762;28;20042;-69
2021/06/09 04:06:29;;;;;;;;;;;18.00;96.60;;;;;;5010028;28;20026;-69
2021/06/09 04:08:58;;;;;;;6.63;1.95;;;18.00;96.60;;;;;;5011173;28;19902;-68
2021/06/09 04:11:25;;;;;;;6.43;2.17;;;18.00;96.80;;;;;;5009543;28;20412;-69
2021/06/09 04:13:53;;;;;;;4.30;2.03;;;18.00;96.90;;;;;;5009494;28;20148;-68
2021/06/09 04:16:20;;;;;;;4.78;1.70;;;18.00;96.90;;;;;;5009608;28;20034;-70
2021/06/09 04:18:49;;;;;;;3.60;2.10;;;18.10;96.60;;;;;;5009369;28;20030;-70
2021/06/09 04:21:16;;;;;;;8.50;2.55;;;18.10;96.90;;;;;;5010906;28;20046;-70
2021/06/09 04:23:41;;;;;;;5.75;1.88;;;18.10;97.10;;;;;;5011354;28;20160;-69
2021/06/09 04:26:11;;;;;;;9.70;2.45;;;18.10;97.30;;;;;;5013355;28;20120;-69
2021/06/09 04:28:37;;;;;;;6.30;2.30;;;18.20;97.30;;;;;;5012442;28;20131;-69
2021/06/09 04:31:03;;;;;;;4.28;1.90;;;18.30;96.90;;;;;;5012414;28;20372;-70
2021/06/09 04:33:30;;;;;;;9.13;2.20;;;18.30;96.50;;;;;;5011975;28;20136;-69
2021/06/09 04:35:56;;;;;;;3.03;2.13;;;18.30;96.90;;;;;;5014337;28;20029;-70
2021/06/09 04:38:22;;;;;;;3.72;2.08;;;18.40;96.90;;;;;;5013150;28;20360;-68
2021/06/09 04:40:52;;;;;;;4.18;2.15;;;18.40;96.70;;;;;;5012792;28;20501;-69
2021/06/09 04:43:22;;;;;;;8.63;2.38;;;18.50;96.50;;;;;;5012608;28;20072;-70
2021/06/09 04:45:48;;;;;;;4.10;2.22;;;18.50;96.20;;;;;;5012749;28;20057;-71
2021/06/09 04:48:16;;;;;;;7.75;2.38;;;18.50;96.70;;;;;;5014297;28;20032;-69
2021/06/09 04:50:42;;;;;;;;;;;18.50;96.80;;;;;;5013298;28;20518;-70
2021/06/09 04:53:12;;;;;;;3.95;2.00;;;18.50;96.20;;;;;;5012712;28;19933;-70
2021/06/09 04:55:39;;;;;;;3.83;2.40;;;18.50;96.10;;;;;;5012624;28;20063;-70
2021/06/09 04:58:05;;;;;;;8.18;2.42;;;18.60;96.20;;;;;;5012187;28;20706;-69
2021/06/09 05:00:31;;;;;;;3.22;2.25;;;18.60;96.10;;;;;;5012464;28;20448;-69
2021/06/09 05:02:57;;;;;;;8.27;4.38;;;18.60;96.00;;;;;;5013863;28;20045;-71
2021/06/09 05:05:22;;;;;;;5.45;3.50;;;18.60;96.10;;;;;;5012187;28;20030;-70
2021/06/09 05:07:48;;;;;;;4.15;2.38;;;18.60;96.50;;;;;;5012508;28;20042;-70
2021/06/09 05:10:14;;;;;;;6.25;2.40;;;18.60;96.60;;;;;;5012396;28;20042;-69
2021/06/09 05:12:57;;;;;;;7.43;2.75;;;18.60;96.60;;;;;;5012193;28;20030;-70
2021/06/09 05:15:25;;;;;;;5.18;2.20;;;18.70;96.30;;;;;;5012294;28;20029;-69
2021/06/09 05:17:51;;;;;;;;;;;18.70;96.10;;;;;;5014153;28;20373;-69
2021/06/09 05:20:24;;;;;;;6.60;2.50;;;18.80;96.00;;;;;;5012060;28;19909;-69
2021/06/09 05:23:02;;;;;;;11.07;2.20;;;18.80;95.80;;;;;;5010826;28;20042;-69
2021/06/09 05:25:29;;;;;;;6.20;2.30;;;18.80;96.00;;;;;;5011920;28;20045;-69
2021/06/09 05:27:58;;;;;;;8.90;2.78;;;18.80;96.10;;;;;;5012054;28;20038;-69
2021/06/09 05:30:23;;;;;;;;;;;18.80;96.00;;;;;;5012366;28;20079;-70
2021/06/09 05:32:51;;;;;;;5.00;2.40;;;18.90;96.10;;;;;;5013522;28;20300;-71
2021/06/09 05:35:17;;;;;;;;;;;18.90;96.00;;;;;;5011099;28;20046;-71
2021/06/09 05:37:45;;;;;;;3.78;2.60;;;19.00;96.00;;;;;;5011424;28;20075;-70
2021/06/09 05:40:11;;;;;;;5.95;2.90;;;19.00;96.10;;;;;;5011548;28;20038;-70
2021/06/09 05:42:37;;;;;;;7.78;2.53;;;19.00;96.20;;;;;;5011727;28;20025;-69
2021/06/09 05:45:05;;;;;;;10.13;2.50;;;19.10;96.20;;;;;;5013036;28;20470;-70
2021/06/09 05:47:30;;;;;;;8.20;2.22;;;19.20;96.10;;;;;;5011291;28;20435;-71
2021/06/09 05:50:08;;;;;;;6.57;2.28;;;19.40;95.80;;;;;;5011617;28;20326;-70
2021/06/09 05:52:34;;;;;;;5.78;2.90;;;19.50;95.50;;;;;;5011612;28;20030;-72
2021/06/09 05:55:04;;;;;;;12.95;5.45;;;19.60;95.50;;;;;;5012308;28;20105;-75
2021/06/09 05:57:30;;;;;;;10.57;3.72;;;19.70;95.20;;;;;;5010647;28;20033;-76
2021/06/09 05:59:56;;;;;;;11.10;2.83;;;19.80;95.20;;;;;;5010002;28;20040;-74
2021/06/09 06:02:22;;;;;;;5.80;2.67;;;19.80;95.20;;;;;;5011146;28;20034;-76
2021/06/09 06:04:48;;;;;;;9.35;2.72;;;19.90;95.20;;;;;;5011622;28;20468;-74
2021/06/09 06:07:14;;;;;;;7.35;2.75;;;19.90;95.30;;;;;;4992495;28;20515;-74
2021/06/09 06:09:39;;;;;;;5.00;2.28;;;20.00;95.20;;;;;;4989896;28;20103;-73
2021/06/09 06:12:08;;;;;;;11.77;2.53;;;20.10;94.90;;;;;;4974665;28;20031;-74
2021/06/09 06:14:34;;;;;;;10.75;2.58;;;20.10;94.70;;;;;;4992264;28;20046;-73
2021/06/09 06:17:01;;;;;;;7.85;2.75;;;20.20;94.60;;;;;;4993108;28;20045;-76
2021/06/09 06:19:35;;;;;;;9.32;3.67;;;20.20;94.50;;;;;;4992091;28;20100;-74
2021/06/09 06:22:06;;;;;;;8.80;3.38;;;20.30;94.40;;;;;;4991936;28;20038;-75
2021/06/09 06:24:31;;;;;;;9.82;3.60;;;20.30;94.60;;;;;;4992214;28;20032;-73
2021/06/09 06:26:57;;;;;;;4.65;3.08;;;20.30;94.20;;;;;;4993403;28;20030;-74
2021/06/09 06:29:23;;;;;;;13.32;3.75;;;20.40;93.90;;;;;;4991657;28;20543;-74
2021/06/09 06:31:49;;;;;;;5.20;3.10;;;20.40;93.80;;;;;;4991454;28;20171;-74
2021/06/09 06:34:17;;;;;;;7.95;2.75;;;20.40;93.90;;;;;;4992354;28;20038;-76
2021/06/09 06:36:43;;;;;;;6.65;2.60;;;20.40;93.90;;;;;;4993468;28;20042;-77
2021/06/09 06:39:10;;;;;;;7.78;2.30;;;20.40;93.80;;;;;;4994012;28;20038;-76
2021/06/09 06:41:36;;;;;;;7.05;2.45;;;20.30;93.60;;;;;;4992089;28;20125;-77
2021/06/09 06:44:04;;;;;;;14.82;2.83;;;20.30;93.80;;;;;;4991126;28;20193;-74
2021/06/09 06:46:30;;;;;;;15.00;6.93;;;20.40;94.00;;;;;;4988789;28;20049;-76
2021/06/09 06:48:56;;;;;;;12.70;4.78;;;20.40;94.30;;;;;;4990933;28;20042;-76
2021/06/09 06:51:23;;;;;;;10.27;2.50;;;20.40;94.00;;;;;;4990874;28;20472;-77
2021/06/09 06:53:54;;;;;;;5.07;2.65;;;20.40;94.00;;;;;;4992835;28;20076;-74
2021/06/09 06:56:20;;;;;;;9.20;2.60;;;20.40;94.00;;;;;;4990906;28;20039;-77
2021/06/09 06:58:49;;;;;;;11.00;3.10;;;20.40;94.20;;;;;;4990667;28;20033;-75
2021/06/09 07:01:20;;;;;;;7.43;3.03;;;20.40;94.10;;;;;;4990916;28;20030;-75
2021/06/09 07:03:46;;;;;;;5.07;2.22;;;20.40;94.00;;;;;;4990769;28;20378;-79
2021/06/09 07:06:13;;;;;;;8.57;3.10;;;20.40;93.70;;;;;;4992364;28;20026;-80
2021/06/09 07:08:39;;;;;;;5.55;2.53;;;20.40;93.80;;;;;;4955811;28;20346;-75
2021/06/09 07:11:06;;;;;;;4.30;2.28;;;20.50;94.00;;;;;;4990357;28;20061;-74
2021/06/09 07:13:33;;;;;;;8.93;2.53;;;20.60;93.70;;;;;;4990520;28;20402;-76
2021/06/09 07:16:02;;;;;;;5.72;2.10;;;20.60;93.50;;;;;;4990397;28;20552;-75
2021/06/09 07:18:30;;;;;;;6.15;2.10;;;20.70;93.60;;;;;;4990388;28;20098;-77
2021/06/09 07:20:56;;;;;;;11.05;3.10;;;20.80;93.90;;;;;;4992294;28;20106;-79
2021/06/09 07:23:22;;;;;;;6.78;2.47;;;20.90;94.00;;;;;;4990309;28;20455;-78
2021/06/09 07:25:49;;;;;;;5.68;1.95;;;21.00;93.70;;;;;;4990463;28;20173;-74
2021/06/09 07:28:20;;;;;;;7.00;2.40;;;21.10;93.70;;;;;;4990486;28;20376;-73
2021/06/09 07:30:47;;;;;;;10.85;2.40;;;21.20;93.60;;;;;;4990478;28;20043;-78
2021/06/09 07:33:14;;;;;;;7.70;2.60;;;21.30;93.40;;;;;;4991753;28;20030;-72
2021/06/09 07:35:39;;;;;;;8.73;2.70;;;21.30;93.30;;;;;;4990237;28;20023;-75
2021/06/09 07:38:19;;;;;;;7.03;2.35;;;21.30;93.40;;;;;;4990131;28;20073;-75
2021/06/09 07:40:50;;;;;;;5.80;2.50;;;21.40;93.40;;;;;;4978754;28;20158;-74
2021/06/09 07:43:23;;;;;;;9.43;2.88;;;21.40;92.60;;;;;;4970015;28;20034;-76
2021/06/09 07:45:49;;;;;;;5.00;2.20;;;21.30;92.80;;;;;;4974058;28;20417;-76
2021/06/09 07:48:22;;;;;;;4.90;2.50;;;21.60;92.90;;;;;;4991532;28;20030;-75
2021/06/09 07:50:54;;;;;;;5.03;2.38;;;21.80;92.70;;;;;;4985933;28;20444;-75
2021/06/09 07:53:21;;;;;;;6.90;2.88;;;22.20;92.50;;;;;;4986758;28;20137;-75
2021/06/09 07:55:49;;;;;;;6.88;2.55;;;22.40;92.10;;;;;;4989974;28;20045;-74
2021/06/09 07:58:18;;;;;;;12.50;2.60;;;22.60;91.80;;;;;;4989399;28;20046;-75
2021/06/09 08:00:44;;;;;;;8.13;3.30;;;22.70;91.70;;;;;;4988437;28;20030;-73
2021/06/09 08:03:10;;;;;;;7.82;2.67;;;22.80;91.80;;;;;;4991641;28;20031;-76
2021/06/09 08:05:39;;;;;;;5.72;2.97;;;23.00;91.50;;;;;;4989906;28;20077;-75
2021/06/09 08:08:05;;;;;;;4.45;3.00;;;23.00;91.40;;;;;;4989815;28;20050;-77
2021/06/09 08:10:32;;;;;;;8.57;2.50;;;23.20;91.40;;;;;;4980000;28;20034;-80
2021/06/09 08:12:57;;;;;;;7.63;3.67;;;23.20;91.70;;;;;;4989301;28;20034;-78
2021/06/09 08:15:23;;;;;;;4.35;3.15;;;23.20;91.20;;;;;;4988729;28;20034;-76
2021/06/09 08:17:50;;;;;;;5.93;3.25;;;23.10;91.30;;;;;;4991464;28;20042;-76
2021/06/09 08:20:18;;;;;;;15.35;3.80;;;23.10;91.20;;;;;;4988773;28;20088;-77
2021/06/09 08:22:45;;;;;;;8.38;3.20;;;23.50;91.20;;;;;;4989930;28;20049;-77
2021/06/09 08:25:13;;;;;;;8.50;3.20;;;24.20;91.30;;;;;;4989762;28;20118;-78
2021/06/09 08:27:40;;;;;;;5.10;2.92;;;25.00;90.70;;;;;;4989451;28;20094;-83
2021/06/09 08:30:07;;;;;;;6.03;3.53;;;25.90;89.20;;;;;;4990813;28;20042;-77
2021/06/09 08:32:34;;;;;;;4.70;4.13;;;26.70;86.10;;;;;;4989352;28;20121;-78
2021/06/09 08:35:00;;;;;;;6.32;4.28;;;27.20;84.50;;;;;;4990122;28;20031;-76
2021/06/09 08:37:27;;;;;;;10.38;4.45;;;27.70;81.30;;;;;;4990084;28;20041;-76
2021/06/09 08:39:53;;;;;;;8.13;3.80;;;27.80;79.90;;;;;;4989623;28;20185;-74
2021/06/09 08:42:20;;;;;;;7.82;4.07;;;28.60;79.00;;;;;;4990997;28;20085;-76
2021/06/09 08:44:49;;;;;;;9.68;4.32;;;29.40;77.20;;;;;;4989244;28;20066;-75
2021/06/09 08:47:15;;;;;;;5.25;4.00;;;29.70;75.40;;;;;;4989559;28;20042;-76
2021/06/09 08:49:42;;;;;;;8.05;3.90;;;30.20;72.40;;;;;;4989823;28;20046;-75
2021/06/09 08:52:10;;;;;;;5.70;4.10;;;30.70;70.10;;;;;;4989812;28;20038;-76
2021/06/09 08:54:41;;;;;;;7.40;3.70;;;30.70;69.10;;;;;;4989416;28;20034;-75
2021/06/09 08:57:07;;;;;;;5.75;3.95;;;31.00;66.90;;;;;;4990632;28;20352;-74
2021/06/09 08:59:33;;;;;;;7.85;4.45;;;30.80;66.10;;;;;;4989116;28;20054;-75
2021/06/09 09:02:00;;;;;;;9.90;4.65;;;30.60;65.30;;;;;;4989218;28;20117;-75
2021/06/09 09:04:27;;;;;;;6.70;4.20;;;30.70;66.70;;;;;;4988857;28;20042;-75
2021/06/09 09:06:53;;;;;;;5.55;3.97;;;31.00;64.20;;;;;;4988900;28;20108;-78
2021/06/09 09:09:18;;;;;;;5.72;3.95;;;31.20;62.60;;;;;;4990383;28;20449;-74
2021/06/09 09:11:44;;;;;;;8.70;3.70;;;30.90;63.80;;;;;;4992128;28;20081;-74
2021/06/09 09:14:13;;;;;;;6.00;4.28;;;30.70;62.40;;;;;;4992212;28;20113;-75
2021/06/09 09:17:03;;;;;;;7.15;3.90;;;30.70;64.40;;;;;;4981802;28;20034;-72
2021/06/09 09:19:36;;;;;;;6.43;4.00;;;30.30;64.10;;;;;;4982009;28;20034;-74
2021/06/09 09:22:02;;;;;;;5.22;3.70;;;30.40;63.60;;;;;;4991298;28;20103;-73
2021/06/09 09:24:39;;;;;;;6.83;4.33;;;30.40;64.40;;;;;;4991943;28;20089;-73
2021/06/09 09:27:05;;;;;;;12.65;4.80;;;30.20;62.60;;;;;;4993844;28;20026;-76
2021/06/09 09:29:31;;;;;;;9.02;5.40;;;29.60;64.10;;;;;;4974709;28;20039;-74
2021/06/09 09:32:05;;;;;;;6.57;4.15;;;29.60;64.00;;;;;;4984625;28;20049;-75
2021/06/09 09:34:47;;;;;;;8.18;4.63;;;29.30;65.60;;;;;;4989661;28;20440;-75
2021/06/09 09:37:21;;;;;;;7.05;5.03;;;29.70;65.60;;;;;;4992521;28;20046;-74
2021/06/09 09:39:48;;;;;;;6.80;5.10;;;29.60;65.50;;;;;;4991382;28;20031;-75
2021/06/09 09:42:21;;;;;;;7.65;5.10;;;29.30;65.20;;;;;;4993955;28;20034;-76
2021/06/09 09:44:50;;;;;;;8.75;5.72;;;29.20;65.30;;;;;;4992402;28;20054;-74
2021/06/09 09:47:20;;;;;;;10.43;6.32;;;28.80;64.80;;;;;;4990935;28;20341;-76
2021/06/09 09:49:48;;;;;;;8.35;5.32;;;28.70;66.20;;;;;;4991628;28;20034;-74
2021/06/09 09:52:14;;;;;;;7.07;5.90;;;29.00;66.70;;;;;;4991706;28;20372;-74
2021/06/09 09:54:43;;;;;;;7.05;5.00;;;29.00;66.20;;;;;;4991990;28;20469;-76
2021/06/09 09:57:11;;;;;;;6.65;4.90;;;28.90;65.60;;;;;;4993448;28;20447;-74
2021/06/09 09:59:38;;;;;;;6.93;5.57;;;28.80;66.10;;;;;;4996485;28;20038;-74
2021/06/09 10:02:12;;;;;;;9.95;5.07;;;28.70;66.30;;;;;;4991855;28;20461;-74
2021/06/09 10:04:38;;;;;;;7.63;4.90;;;28.80;66.40;;;;;;4991290;28;20616;-78
2021/06/09 10:07:09;;;;;;;13.40;5.40;;;28.80;67.10;;;;;;4990464;28;20035;-75
2021/06/09 10:09:35;;;;;;;14.48;4.88;;;29.10;66.40;;;;;;4991809;28;20668;-74
2021/06/09 10:12:10;;;;;;;7.47;5.47;;;29.20;66.30;;;;;;4993320;28;20350;-75
2021/06/09 10:14:39;;;;;;;7.65;4.75;;;29.10;66.00;;;;;;4991682;28;20038;-73
2021/06/09 10:17:06;;;;;;;6.55;5.60;;;29.10;66.40;;;;;;4991721;28;20046;-77
2021/06/09 10:20:00;;;;;;;5.38;4.82;;;29.20;64.70;;;;;;4991592;28;20129;-73
2021/06/09 10:22:35;;;;;;;6.88;4.95;;;28.80;65.60;;;;;;4991172;28;20053;-73
2021/06/09 10:25:07;;;;;;;8.68;5.75;;;28.90;65.00;;;;;;4989939;28;20046;-74
2021/06/09 10:27:47;;;;;;;8.48;5.57;;;28.60;64.60;;;;;;4991340;28;20554;-73
2021/06/09 10:30:19;;;;;;;8.70;5.55;;;28.70;65.50;;;;;;4992793;28;20114;-75
2021/06/09 10:32:59;;;;;;;10.70;5.25;;;28.50;65.40;;;;;;4991193;28;20034;-74
2021/06/09 10:35:30;;;;;;;7.43;5.63;;;28.30;66.20;;;;;;4990954;28;20527;-83
2021/06/09 10:38:02;;;;;;;9.02;4.78;;;28.30;66.50;;;;;;4991760;28;20042;-77
2021/06/09 10:40:30;;;;;;;8.38;5.03;;;28.50;65.10;;;;;;4988693;28;20467;-76
2021/06/09 10:42:59;;;;;;;9.25;5.88;;;28.40;65.80;;;;;;4964112;28;20034;-80
2021/06/09 10:45:26;;;;;;;12.70;6.10;;;28.30;65.50;;;;;;4992775;28;20492;-78
2021/06/09 10:47:57;;;;;;;6.63;4.25;;;28.40;66.40;;;;;;4992752;28;20054;-76
2021/06/09 10:50:24;;;;;;;10.20;4.72;;;28.50;66.10;;;;;;4991003;28;20053;-76
2021/06/09 10:52:49;;;;;;;10.13;5.07;;;28.60;67.00;;;;;;4990093;28;20034;-75
2021/06/09 10:55:15;;;;;;;7.82;4.70;;;28.70;66.30;;;;;;4990762;28;20126;-79
2021/06/09 10:57:54;;;;;;;6.55;5.00;;;28.70;65.40;;;;;;4963717;28;20052;-78
2021/06/09 11:00:20;;;;;;;8.32;5.57;;;28.70;64.80;;;;;;4991599;28;20432;-75
2021/06/09 11:02:48;;;;;;;16.58;5.38;;;28.60;65.00;;;;;;4990820;28;20061;-77
2021/06/09 11:05:14;;;;;;;11.18;5.25;;;28.30;65.10;;;;;;4990527;28;20089;-76
2021/06/09 11:07:45;;;;;;;12.95;8.10;;;28.40;65.60;;;;;;4990792;28;20411;-77
2021/06/09 11:10:16;;;;;;;11.07;6.15;;;28.40;65.20;;;;;;4990752;28;20034;-74
2021/06/09 11:12:48;;;;;;;10.93;6.07;;;28.40;65.40;;;;;;4988063;28;20035;-76
2021/06/09 11:15:22;;;;;;;10.55;5.90;;;28.30;65.90;;;;;;4991861;28;20030;-77
2021/06/09 11:17:50;;;;;;;10.57;5.97;;;28.40;65.80;;;;;;4990826;28;20034;-74
2021/06/09 11:20:23;;;;;;;11.63;5.65;;;28.60;65.20;;;;;;4990273;28;20042;-75
2021/06/09 11:23:10;;;;;;;7.55;5.63;;;28.80;64.60;;;;;;4990271;28;20177;-73
2021/06/09 11:25:43;;;;;;;6.85;5.78;;;28.70;64.10;;;;;;4990227;28;20499;-76
2021/06/09 11:28:13;;;;;;;14.95;5.82;;;28.50;64.10;;;;;;4990202;28;20485;-77
2021/06/09 11:30:51;;;;;;;8.85;6.05;;;28.50;64.10;;;;;;4990010;28;20038;-77
2021/06/09 11:33:29;;;;;;;7.63;5.55;;;28.70;63.80;;;;;;4990815;28;20065;-80
2021/06/09 11:35:58;;;;;;;;;;;28.70;63.30;;;;;;4991087;28;20038;-80
2021/06/09 11:38:25;;;;;;;10.95;6.53;;;28.70;63.10;;;;;;4989980;28;20519;-77
2021/06/09 11:40:56;;;;;;;8.13;5.97;;;28.50;62.20;;;;;;4989785;28;20070;-76
2021/06/09 11:43:34;;;;;;;6.55;5.47;;;28.30;63.50;;;;;;4989756;28;20145;-77
2021/06/09 11:46:19;;;;;;;8.40;5.50;;;28.40;64.50;;;;;;4989925;28;20049;-77
2021/06/09 11:49:09;;;;;;;9.85;5.63;;;28.60;64.50;;;;;;4990306;28;20034;-78
2021/06/09 11:51:39;;;;;;;8.85;5.55;;;28.70;64.20;;;;;;4989775;28;20023;-78
2021/06/09 11:54:17;;;;;;;6.80;5.75;;;28.80;64.40;;;;;;5002516;28;20148;-77
2021/06/09 11:56:50;;;;;;;8.55;5.80;;;28.90;64.80;;;;;;5009717;28;20046;-77
2021/06/09 11:59:35;;;;;;;10.90;5.57;;;28.60;63.70;;;;;;5009461;28;20034;-76
2021/06/09 12:02:09;;;;;;;9.77;6.40;;;28.50;64.10;;;;;;5009005;28;20045;-75
2021/06/09 12:04:39;;;;;;;10.05;6.03;;;28.40;63.80;;;;;;5009210;28;20070;-77
2021/06/09 12:07:07;;;;;;;8.40;5.95;;;28.20;64.00;;;;;;5008959;28;20030;-79
2021/06/09 12:09:36;;;;;;;13.63;5.70;;;28.00;64.50;;;;;;5009841;28;20014;-76
2021/06/09 12:12:09;;;;;;;9.88;5.53;;;28.00;65.50;;;;;;5009477;28;20141;-75
2021/06/09 12:14:37;;;;;;;7.88;5.55;;;27.90;66.00;;;;;;4988632;28;20384;-76
2021/06/09 12:17:29;;;;;;;22.33;5.97;;;27.70;66.10;;;;;;4975665;28;20538;-75
2021/06/09 12:20:07;;;;;;;12.25;6.57;;;27.60;71.20;;;;;;4983118;28;20211;-77
2021/06/09 12:22:35;;;;;;;10.07;6.45;;;27.40;76.30;;;;;;4989253;28;20468;-77
2021/06/09 12:25:14;;;;;;;17.33;7.78;;;27.30;77.50;;;;;;4989521;28;20046;-77
2021/06/09 12:27:42;;;;;;;16.65;6.40;;;27.10;80.40;;;;;;4989950;28;20022;-78
2021/06/09 12:30:19;;;;;;;13.95;7.00;;;27.00;80.50;;;;;;4991406;28;20041;-83
2021/06/09 12:32:45;;;;;;;24.10;8.20;;;26.90;80.80;;;;;;4989809;28;20121;-76
2021/06/09 12:35:13;;;;;;;17.40;9.38;;;26.90;82.30;;;;;;4974762;28;20344;-76
2021/06/09 12:38:06;;;;;;;19.42;9.02;;;26.80;87.00;;;;;;4969807;28;20038;-77
2021/06/09 12:40:37;;;;;;;15.43;9.00;;;26.60;89.30;;;;;;4970507;28;20038;-78
2021/06/09 12:43:13;;;;;;;18.17;10.20;;;26.50;90.50;;;;;;4974423;28;20034;-77
2021/06/09 12:45:44;;;;;;;12.48;8.43;;;26.50;92.30;;;;;;4992989;28;20034;-77
2021/06/09 12:48:20;;;;;;;11.60;8.60;;;26.20;91.40;;;;;;4993603;28;20037;-79
2021/06/09 12:50:50;;;;;;;14.00;9.52;;;26.00;91.80;;;;;;4993522;28;20045;-79
2021/06/09 12:53:19;;;;;;;13.80;8.55;;;25.90;93.20;;;;;;4992799;28;20419;-78
2021/06/09 12:55:48;;;;;;;15.73;9.50;;;25.80;91.90;;;;;;4993335;28;20113;-77
2021/06/09 12:58:15;;;;;;;16.98;8.75;;;25.70;93.40;;;;;;4992827;28;20043;-76
2021/06/09 13:00:48;;;;;;;14.83;10.03;;;25.60;94.20;;;;;;4992888;28;20037;-79